Time;durP1;ratioP1;P1;durP2;ratioP2;P2;SDS_P1;SDS_P2;PMS_P1;PMS_P2;Temp;Humidity;BMP_temperature;BMP_pressure;BME280_temperature;BME280_humidity;BME280_pressure;Samples;Min_cycle;Max_cycle;Signal;HPM_P1;HPM_P2
2023/09/08 00:00:40;;;;;;;18.00;13.38;;;;;;;20.88;61.33;95717.19;5053450;28;20044;-84
2023/09/08 00:03:06;;;;;;;21.27;13.57;;;;;;;20.90;61.99;95735.75;5070864;28;20036;-85
2023/09/08 00:05:31;;;;;;;17.35;13.00;;;;;;;21.08;62.06;95767.66;5069335;28;20041;-85
2023/09/08 00:07:57;;;;;;;16.35;12.38;;;;;;;21.10;62.15;95768.13;5051733;28;20095;-85
2023/09/08 00:10:22;;;;;;;16.52;11.77;;;;;;;20.82;62.27;95734.66;5069707;28;20037;-84
2023/09/08 00:12:48;;;;;;;20.15;11.80;;;;;;;20.90;62.00;95758.09;5070774;28;20390;-85
2023/09/08 00:15:13;;;;;;;18.13;10.95;;;;;;;20.99;61.84;95766.13;5051706;28;20178;-85
2023/09/08 00:17:39;;;;;;;20.35;11.77;;;;;;;20.82;62.04;95755.44;5069481;28;20439;-84
2023/09/08 00:20:09;;;;;;;18.58;11.10;;;;;;;20.77;61.80;95748.31;5072965;28;20029;-85
2023/09/08 00:22:35;;;;;;;15.57;10.50;;;;;;;20.57;61.43;95712.09;5056017;28;20055;-84
2023/09/08 00:25:01;;;;;;;14.68;10.13;;;;;;;20.92;61.50;95769.34;5073840;28;20021;-85
2023/09/08 00:27:27;;;;;;;13.45;10.13;;;;;;;20.14;61.52;95644.88;5072964;28;20053;-85
2023/09/08 00:29:53;;;;;;;15.63;10.68;;;;;;;20.71;61.03;95730.75;5073492;28;20108;-85
2023/09/08 00:32:18;;;;;;;16.55;10.23;;;;;;;21.04;60.56;95774.06;5054179;28;20080;-84
2023/09/08 00:34:44;;;;;;;13.60;9.65;;;;;;;20.53;60.94;95694.19;5026467;28;20042;-83
2023/09/08 00:37:09;;;;;;;16.38;9.77;;;;;;;19.71;60.85;95564.28;5057467;28;20387;-84
2023/09/08 00:39:36;;;;;;;19.02;9.20;;;;;;;20.92;60.38;95753.16;5042862;28;20392;-84
2023/09/08 00:42:01;;;;;;;14.85;9.82;;;;;;;20.33;60.20;95680.34;5023317;28;20041;-83
2023/09/08 00:44:27;;;;;;;14.10;9.43;;;;;;;20.67;59.70;95725.19;5077923;28;20041;-83
2023/09/08 00:46:52;;;;;;;17.65;9.68;;;;;;;20.51;59.22;95699.13;5045296;28;20429;-83
2023/09/08 00:49:18;;;;;;;14.48;9.57;;;;;;;20.55;59.37;95702.75;5056196;28;20040;-83
2023/09/08 00:51:44;;;;;;;16.70;8.98;;;;;;;20.78;59.81;95756.09;5045980;28;20068;-83
2023/09/08 00:54:10;;;;;;;13.63;7.45;;;;;;;20.74;59.14;95752.47;5056269;28;20032;-83
2023/09/08 00:56:37;;;;;;;12.85;6.93;;;;;;;20.85;58.52;95758.25;5048056;28;20021;-83
2023/09/08 00:59:03;;;;;;;11.40;6.80;;;;;;;20.70;57.62;95756.91;5079424;28;20032;-83
2023/09/08 01:01:29;;;;;;;12.90;7.10;;;;;;;20.33;57.39;95701.91;5069570;28;20163;-83
2023/09/08 01:03:55;;;;;;;10.73;6.88;;;;;;;19.99;57.83;95646.22;5059451;28;20041;-83
2023/09/08 01:06:21;;;;;;;14.00;7.78;;;;;;;20.69;57.83;95743.75;5040680;28;20040;-84
2023/09/08 01:08:47;;;;;;;16.05;7.13;;;;;;;20.08;57.89;95662.34;5058997;28;20097;-83
2023/09/08 01:11:13;;;;;;;12.25;7.80;;;;;;;20.44;58.32;95707.72;5055184;28;20036;-83
2023/09/08 01:13:39;;;;;;;11.40;7.07;;;;;;;19.84;59.31;95606.34;5061209;28;20033;-83
2023/09/08 01:16:04;;;;;;;12.45;8.50;;;;;;;20.71;60.61;95755.78;5043505;28;20029;-83
2023/09/08 01:18:30;;;;;;;13.23;7.20;;;;;;;20.39;60.64;95708.69;5058092;28;20036;-84
2023/09/08 01:21:06;;;;;;;9.77;7.13;;;;;;;20.64;60.42;95747.44;5039864;28;20040;-83
2023/09/08 01:23:50;;;;;;;13.00;7.10;;;;;;;20.11;60.61;95677.84;5032270;28;20033;-84
2023/09/08 01:26:25;;;;;;;11.95;7.25;;;;;;;20.59;60.13;95749.50;5038295;28;20542;-83
2023/09/08 01:28:52;;;;;;;12.43;6.45;;;;;;;19.91;60.39;95654.31;5049976;28;20028;-84
2023/09/08 01:31:18;;;;;;;10.68;7.50;;;;;;;20.50;60.35;95738.75;5059080;28;20033;-84
2023/09/08 01:33:45;;;;;;;17.25;6.80;;;;;;;20.14;59.96;95679.13;5044458;28;20080;-84
2023/09/08 01:36:11;;;;;;;13.20;6.82;;;;;;;20.04;59.94;95646.06;5071316;28;20059;-84
2023/09/08 01:38:36;;;;;;;16.23;7.30;;;;;;;20.34;60.83;95730.41;5067314;28;20044;-84
2023/09/08 01:41:02;;;;;;;11.73;7.75;;;;;;;20.28;60.76;95720.91;5052992;28;20498;-84
2023/09/08 01:43:27;;;;;;;13.68;7.00;;;;;;;20.35;60.55;95720.44;5048091;28;20041;-85
2023/09/08 01:45:53;;;;;;;9.32;6.68;;;;;;;20.22;60.41;95694.44;5054418;28;20049;-85
2023/09/08 01:48:18;;;;;;;13.00;7.03;;;;;;;20.07;60.01;95689.56;5072293;28;20029;-85
2023/09/08 01:50:44;;;;;;;17.63;7.10;;;;;;;20.45;60.17;95741.63;5061531;28;20016;-85
2023/09/08 01:53:10;;;;;;;11.18;6.63;;;;;;;20.32;60.43;95721.03;5094411;28;20083;-86
2023/09/08 01:55:35;;;;;;;11.88;6.40;;;;;;;20.12;60.66;95692.91;5074385;28;20009;-85
2023/09/08 01:58:01;;;;;;;12.40;6.50;;;;;;;20.27;60.48;95722.00;5071603;23;20061;-74
2023/09/08 02:00:26;;;;;;;14.00;7.30;;;;;;;20.26;60.79;95728.50;5033605;28;20028;-74
2023/09/08 02:02:52;;;;;;;11.75;6.47;;;;;;;20.41;60.56;95738.78;5033911;28;20033;-74
2023/09/08 02:05:17;;;;;;;14.25;7.32;;;;;;;20.32;60.82;95724.53;5051592;28;20056;-74
2023/09/08 02:07:42;;;;;;;11.45;6.68;;;;;;;20.31;61.25;95741.78;5051788;28;20444;-74
2023/09/08 02:10:10;;;;;;;9.73;6.55;;;;;;;19.77;61.19;95637.56;5033591;28;20079;-74
2023/09/08 02:12:35;;;;;;;10.25;6.57;;;;;;;20.17;60.96;95683.84;5053048;28;20033;-73
2023/09/08 02:15:00;;;;;;;15.95;6.80;;;;;;;20.20;61.04;95710.16;5042497;28;20090;-74
2023/09/08 02:17:26;;;;;;;10.55;7.55;;;;;;;20.37;60.97;95737.03;5061148;28;20037;-76
2023/09/08 02:19:51;;;;;;;14.52;7.05;;;;;;;20.32;61.15;95723.72;5044023;28;20045;-74
2023/09/08 02:22:17;;;;;;;19.58;7.55;;;;;;;20.25;60.98;95709.97;5062436;28;20582;-75
2023/09/08 02:24:43;;;;;;;14.40;7.68;;;;;;;20.39;61.08;95726.75;5077663;28;20056;-76
2023/09/08 02:27:08;;;;;;;11.13;7.35;;;;;;;20.35;61.32;95713.16;5060499;28;20061;-77
2023/09/08 02:29:35;;;;;;;11.93;7.18;;;;;;;20.28;61.56;95707.44;5077555;28;20049;-77
2023/09/08 02:32:00;;;;;;;11.75;7.40;;;;;;;20.06;61.63;95675.34;5092923;23;20134;-83
2023/09/08 02:34:26;;;;;;;13.07;7.88;;;;;;;20.23;62.32;95718.38;5097449;28;20094;-83
2023/09/08 02:36:51;;;;;;;11.98;7.47;;;;;;;20.24;62.43;95724.53;5070704;28;20036;-83
2023/09/08 02:39:17;;;;;;;13.98;7.25;;;;;;;19.49;62.35;95607.56;5067603;28;20100;-83
2023/09/08 02:41:42;;;;;;;16.13;8.15;;;;;;;19.88;62.97;95692.66;5057343;28;20069;-84
2023/09/08 02:44:08;;;;;;;18.55;7.55;;;;;;;19.97;62.97;95688.81;5077051;28;20105;-82
2023/09/08 02:46:33;;;;;;;16.23;8.13;;;;;;;19.98;63.49;95720.03;5074484;28;20136;-82
2023/09/08 02:48:59;;;;;;;12.88;7.63;;;;;;;19.21;63.66;95593.66;5073164;28;20040;-82
2023/09/08 02:51:24;;;;;;;13.57;7.53;;;;;;;19.78;63.98;95688.38;5055639;28;20097;-83
2023/09/08 02:53:50;;;;;;;12.02;7.32;;;;;;;19.98;63.81;95719.22;5056131;28;20128;-82
2023/09/08 02:56:15;;;;;;;13.27;8.43;;;;;;;18.93;63.90;95552.84;5056981;28;20037;-83
2023/09/08 02:58:41;;;;;;;15.73;8.93;;;;;;;19.77;63.91;95684.09;5074530;28;20043;-82
2023/09/08 03:01:14;;;;;;;17.05;8.40;;;;;;;20.00;64.09;95719.69;5070476;28;20066;-82
2023/09/08 03:03:43;;;;;;;13.10;8.18;;;;;;;18.64;63.83;95521.25;5056285;28;20044;-82
2023/09/08 03:06:09;;;;;;;12.88;7.78;;;;;;;19.89;63.93;95700.41;5073788;28;20161;-83
2023/09/08 03:08:36;;;;;;;12.95;8.40;;;;;;;19.89;64.21;95703.09;5067259;28;20376;-82
2023/09/08 03:11:03;;;;;;;16.63;7.90;;;;;;;19.80;64.44;95688.06;5062945;28;20449;-83
2023/09/08 03:13:29;;;;;;;13.95;8.05;;;;;;;19.95;64.29;95707.19;5072957;28;20193;-82
2023/09/08 03:15:55;;;;;;;17.83;8.30;;;;;;;19.93;64.51;95705.91;5073796;28;20059;-83
2023/09/08 03:18:21;;;;;;;17.25;8.05;;;;;;;19.84;64.66;95692.47;5073676;28;20033;-82
2023/09/08 03:20:50;;;;;;;15.88;8.10;;;;;;;19.71;64.87;95684.59;5073620;28;20036;-82
2023/09/08 03:23:16;;;;;;;16.45;8.68;;;;;;;19.87;64.75;95712.59;5072792;28;20434;-82
2023/09/08 03:25:42;;;;;;;15.55;8.63;;;;;;;19.74;64.60;95686.66;5072459;28;20032;-82
2023/09/08 03:28:08;;;;;;;14.38;9.07;;;;;;;19.59;64.74;95674.47;5054288;28;20037;-82
2023/09/08 03:30:33;;;;;;;17.50;8.48;;;;;;;19.60;64.89;95674.16;5072649;28;20063;-83
2023/09/08 03:32:59;;;;;;;13.88;7.53;;;;;;;19.40;64.97;95641.69;5069342;28;20043;-83
2023/09/08 03:35:24;;;;;;;10.82;8.38;;;;;;;19.57;65.15;95679.38;5056838;28;20115;-82
2023/09/08 03:37:50;;;;;;;15.50;8.52;;;;;;;19.21;64.81;95615.94;5074179;28;20479;-83
2023/09/08 03:40:15;;;;;;;15.57;7.82;;;;;;;19.64;65.24;95682.38;5074608;28;20372;-83
2023/09/08 03:42:42;;;;;;;12.57;7.75;;;;;;;19.33;65.35;95641.38;5073410;28;20043;-83
2023/09/08 03:45:07;;;;;;;15.85;7.75;;;;;;;19.05;65.40;95603.28;5074000;28;20032;-84
2023/09/08 03:47:33;;;;;;;16.20;9.32;;;;;;;19.20;65.29;95638.56;5079827;28;20125;-83
2023/09/08 03:49:58;;;;;;;11.25;8.02;;;;;;;18.93;65.54;95590.47;5078940;28;20114;-83
2023/09/08 03:52:24;;;;;;;13.30;8.40;;;;;;;18.72;65.75;95560.75;5056375;28;20414;-83
2023/09/08 03:54:50;;;;;;;16.55;7.82;;;;;;;19.20;65.70;95635.06;5054680;28;20033;-83
2023/09/08 03:57:15;;;;;;;15.05;8.82;;;;;;;19.68;65.57;95701.38;5073595;28;20553;-84
2023/09/08 03:59:40;;;;;;;21.88;9.70;;;;;;;18.95;65.52;95606.28;5058479;28;20118;-83
2023/09/08 04:02:06;;;;;;;15.40;8.60;;;;;;;19.29;66.00;95646.63;5057889;28;20417;-83
2023/09/08 04:04:31;;;;;;;16.33;9.23;;;;;;;19.29;65.99;95662.75;5056613;28;20105;-84
2023/09/08 04:06:57;;;;;;;16.83;7.97;;;;;;;19.59;66.22;95712.94;5071021;28;20028;-85
2023/09/08 04:09:22;;;;;;;15.13;8.95;;;;;;;19.27;66.12;95660.38;5073497;28;20036;-85
2023/09/08 04:11:48;;;;;;;15.68;9.13;;;;;;;19.36;66.57;95675.72;5052565;28;20064;-86
2023/09/08 04:14:13;;;;;;;21.50;9.30;;;;;;;19.51;66.57;95699.50;5058327;28;20036;-83
2023/09/08 04:16:38;;;;;;;18.38;9.00;;;;;;;19.52;66.94;95711.84;5073212;28;20033;-84
2023/09/08 04:19:04;;;;;;;17.95;9.40;;;;;;;19.31;66.84;95678.56;5048781;28;20028;-84
2023/09/08 04:21:29;;;;;;;11.85;8.35;;;;;;;18.96;66.95;95622.09;5046402;28;20123;-84
2023/09/08 04:23:55;;;;;;;14.60;9.95;;;;;;;19.51;67.25;95705.66;5055249;28;20032;-84
2023/09/08 04:26:20;;;;;;;17.17;9.35;;;;;;;19.52;67.17;95717.22;5070990;28;20036;-83
2023/09/08 04:28:46;;;;;;;13.30;8.38;;;;;;;19.02;67.45;95647.72;5054617;28;20071;-84
2023/09/08 04:31:11;;;;;;;15.63;9.77;;;;;;;19.39;67.57;95721.59;5054785;28;20040;-84
2023/09/08 04:33:38;;;;;;;13.15;8.95;;;;;;;19.24;67.82;95692.47;5073222;28;20055;-84
2023/09/08 04:36:04;;;;;;;19.23;9.18;;;;;;;19.17;67.87;95703.72;5053850;28;20036;-84
2023/09/08 04:38:30;;;;;;;15.93;8.88;;;;;;;19.18;67.86;95691.84;5072188;28;20085;-83
2023/09/08 04:40:55;;;;;;;18.50;10.13;;;;;;;18.88;67.74;95645.19;5054510;28;20032;-84
2023/09/08 04:43:20;;;;;;;14.13;8.52;;;;;;;19.42;67.82;95733.63;5072938;28;20434;-84
2023/09/08 04:45:46;;;;;;;15.05;9.80;;;;;;;19.08;67.52;95683.28;5072957;28;20045;-84
2023/09/08 04:48:11;;;;;;;16.88;9.60;;;;;;;18.48;67.59;95589.91;5083654;28;20033;-88
2023/09/08 04:50:37;;;;;;;18.60;9.20;;;;;;;19.13;67.45;95667.03;5067346;28;20044;-86
2023/09/08 04:53:02;;;;;;;15.80;9.38;;;;;;;18.32;67.48;95533.19;5083678;28;20032;-86
2023/09/08 04:55:29;;;;;;;17.75;9.30;;;;;;;19.57;67.54;95727.81;5066221;28;20060;-86
2023/09/08 04:57:55;;;;;;;17.10;9.63;;;;;;;18.87;67.65;95621.28;5085657;28;20032;-86
2023/09/08 05:00:21;;;;;;;19.70;9.27;;;;;;;19.56;67.58;95723.53;5091106;28;20127;-85
2023/09/08 05:02:48;;;;;;;20.85;9.80;;;;;;;18.77;67.56;95619.69;5076421;28;20028;-86
2023/09/08 05:05:14;;;;;;;17.23;8.95;;;;;;;17.64;67.51;95437.22;5095877;28;20037;-85
2023/09/08 05:07:39;;;;;;;15.20;9.70;;;;;;;18.43;67.63;95537.16;5079994;28;20071;-85
2023/09/08 05:10:05;;;;;;;20.63;9.50;;;;;;;19.27;67.80;95670.34;5080498;28;20033;-85
2023/09/08 05:12:31;;;;;;;16.58;8.70;;;;;;;19.38;67.74;95693.13;5096599;28;20032;-85
2023/09/08 05:15:00;;;;;;;14.57;8.98;;;;;;;19.69;67.63;95727.94;5078351;28;20047;-85
2023/09/08 05:17:26;;;;;;;15.77;9.40;;;;;;;19.01;67.35;95623.84;5078018;28;20028;-85
2023/09/08 05:19:51;;;;;;;15.52;9.07;;;;;;;19.73;66.93;95728.91;5061417;28;20028;-84
2023/09/08 05:22:17;;;;;;;21.27;10.20;;;;;;;19.75;66.99;95717.84;5076038;28;20043;-85
2023/09/08 05:24:42;;;;;;;42.20;11.55;;;;;;;18.68;66.80;95570.56;5080876;28;20109;-85
2023/09/08 05:27:08;;;;;;;19.42;8.93;;;;;;;19.75;66.97;95739.38;5062254;28;20040;-85
2023/09/08 05:29:33;;;;;;;16.45;9.68;;;;;;;19.80;66.17;95729.22;5077076;28;20028;-85
2023/09/08 05:31:59;;;;;;;18.05;8.13;;;;;;;19.73;65.88;95706.59;5059471;28;21355;-85
2023/09/08 05:34:24;;;;;;;18.23;8.48;;;;;;;18.88;65.99;95575.31;5065226;28;20119;-84
2023/09/08 05:36:49;;;;;;;12.00;8.35;;;;;;;19.20;65.47;95627.81;5062790;28;20096;-86
2023/09/08 05:39:19;;;;;;;15.73;8.02;;;;;;;19.76;65.71;95709.41;5065206;28;20028;-85
2023/09/08 05:41:47;;;;;;;15.15;7.55;;;;;;;19.60;65.50;95668.00;5082560;28;20157;-85
2023/09/08 05:44:12;;;;;;;13.18;7.20;;;;;;;19.33;65.03;95615.28;5069167;28;20148;-85
2023/09/08 05:46:38;;;;;;;18.42;7.60;;;;;;;20.00;64.89;95743.91;5075481;28;20112;-85
2023/09/08 05:49:03;;;;;;;14.15;7.53;;;;;;;19.17;64.78;95614.97;5059292;28;20033;-85
2023/09/08 05:51:30;;;;;;;19.25;7.72;;;;;;;18.80;64.98;95541.16;5078758;28;20055;-85
2023/09/08 05:53:55;;;;;;;14.77;7.57;;;;;;;20.04;65.04;95734.91;5052518;28;20024;-85
2023/09/08 05:56:26;;;;;;;18.23;7.35;;;;;;;20.19;64.36;95740.88;5074146;28;20613;-85
2023/09/08 05:58:52;;;;;;;14.20;7.45;;;;;;;19.78;63.56;95696.44;5053932;28;20746;-85
2023/09/08 06:01:17;;;;;;;12.23;6.15;;;;;;;19.85;61.01;95722.88;5034034;28;20032;-85
2023/09/08 06:03:43;;;;;;;13.20;5.85;;;;;;;20.10;60.45;95740.91;5046614;28;20063;-85
2023/09/08 06:06:08;;;;;;;13.27;6.80;;;;;;;19.99;60.03;95704.63;5057814;28;20358;-85
2023/09/08 06:08:34;;;;;;;21.02;7.15;;;;;;;20.21;59.64;95741.38;5049672;28;20852;-84
2023/09/08 06:10:59;;;;;;;17.50;6.70;;;;;;;20.31;59.56;95749.88;5043097;28;20029;-84
2023/09/08 06:13:33;;;;;;;14.23;6.78;;;;;;;19.96;59.42;95689.94;5051442;28;20044;-84
2023/09/08 06:15:58;;;;;;;15.30;7.15;;;;;;;20.34;59.45;95743.09;5052413;28;20193;-84
2023/09/08 06:21:12;;;;;;;13.15;6.72;;;;;;;20.11;58.67;95696.72;5056761;28;20644;-86
2023/09/08 06:23:37;;;;;;;16.48;6.60;;;;;;;20.08;58.13;95683.09;5057452;28;20028;-85
2023/09/08 06:26:03;;;;;;;13.90;6.68;;;;;;;20.26;57.80;95698.88;5036267;28;20554;-85
2023/09/08 06:28:28;;;;;;;17.90;6.72;;;;;;;20.60;57.67;95741.09;5056264;28;20024;-83
2023/09/08 06:32:06;;;;;;;25.77;6.05;;;;;;;20.63;57.10;95743.16;5047117;28;20044;-84
2023/09/08 06:34:31;;;;;;;11.32;5.70;;;;;;;19.41;55.61;95578.75;4946197;28;20121;-83
2023/09/08 06:36:57;;;;;;;12.50;5.88;;;;;;;19.90;55.28;95650.84;5039621;28;20047;-85
2023/09/08 06:39:29;;;;;;;11.55;5.32;;;;;;;18.73;55.05;95454.88;5050127;28;20094;-85
2023/09/08 06:41:55;;;;;;;15.10;5.60;;;;;;;20.60;54.66;95735.69;5072071;28;20028;-84
2023/09/08 06:44:21;;;;;;;9.60;5.50;;;;;;;20.13;54.59;95666.78;5042514;28;20032;-85
2023/09/08 06:46:46;;;;;;;11.73;5.07;;;;;;;20.32;54.36;95672.56;5060757;28;20308;-83
2023/09/08 06:49:12;;;;;;;10.98;4.90;;;;;;;19.79;53.80;95570.75;5045897;28;20033;-85
2023/09/08 06:51:38;;;;;;;10.20;5.32;;;;;;;20.96;53.44;95739.81;5040333;28;20092;-83
2023/09/08 06:54:04;;;;;;;8.60;4.72;;;;;;;20.26;52.92;95606.53;5027379;28;20090;-83
2023/09/08 06:56:29;;;;;;;13.73;4.90;;;;;;;21.12;51.79;95759.72;5058422;28;20032;-85
2023/09/08 06:58:57;;;;;;;11.23;5.18;;;;;;;21.22;51.98;95745.09;5051885;28;20048;-85
2023/09/08 07:01:26;;;;;;;9.75;5.13;;;;;;;21.15;51.91;95740.19;5047496;28;20028;-85
2023/09/08 07:03:51;;;;;;;7.13;4.32;;;;;;;21.32;52.16;95766.28;5025905;28;20040;-84
2023/09/08 07:06:17;;;;;;;10.05;4.70;;;;;;;20.50;50.97;95632.91;5041322;28;20055;-86
2023/09/08 07:08:42;;;;;;;9.30;4.35;;;;;;;20.97;50.66;95698.28;5030710;28;20106;-84
2023/09/08 07:11:08;;;;;;;11.10;4.82;;;;;;;20.42;50.20;95612.97;5056058;28;20613;-85
2023/09/08 07:13:34;;;;;;;8.60;4.53;;;;;;;21.44;49.33;95759.06;5039164;28;20103;-85
2023/09/08 07:16:00;;;;;;;7.65;4.55;;;;;;;21.38;49.87;95756.88;5060317;28;20041;-85
2023/09/08 07:18:25;;;;;;;15.98;5.15;;;;;;;21.04;50.12;95699.34;5014545;28;20033;-83
2023/09/08 07:20:51;;;;;;;15.63;4.82;;;;;;;20.81;50.11;95665.69;5024195;28;20033;-85
2023/09/08 07:23:18;;;;;;;8.52;3.75;;;;;;;21.48;48.89;95757.31;5037188;28;20037;-86
2023/09/08 07:25:48;;;;;;;7.68;3.50;;;;;;;20.96;48.35;95673.22;5042061;28;20029;-86
2023/09/08 07:28:14;;;;;;;10.15;3.63;;;;;;;20.42;48.57;95586.03;5025385;28;20039;-84
2023/09/08 07:30:40;;;;;;;7.35;4.03;;;;;;;21.70;48.39;95750.00;5053583;28;20267;-84
2023/09/08 07:33:05;;;;;;;8.10;4.18;;;;;;;21.69;48.35;95760.00;5052638;28;20024;-84
2023/09/08 07:35:31;;;;;;;11.63;4.43;;;;;;;21.22;48.25;95689.22;5024868;28;20130;-85
2023/09/08 07:37:57;;;;;;;8.45;3.80;;;;;;;21.80;47.96;95749.59;5029336;28;20153;-85
2023/09/08 07:40:22;;;;;;;9.60;4.35;;;;;;;21.59;47.82;95716.44;5041728;28;20049;-83
2023/09/08 07:42:47;;;;;;;7.60;4.40;;;;;;;21.80;48.03;95742.28;5033370;28;20100;-85
2023/09/08 07:45:13;;;;;;;7.93;4.20;;;;;;;21.52;46.98;95704.25;5048882;28;20040;-83
2023/09/08 07:47:38;;;;;;;9.82;5.05;;;;;;;20.90;47.66;95600.94;5052688;28;20024;-84
2023/09/08 07:50:21;;;;;;;6.68;4.20;;;;;;;21.99;46.70;95749.13;5055548;28;20043;-83
2023/09/08 07:52:48;;;;;;;7.70;3.67;;;;;;;21.95;46.52;95730.09;5041424;28;20036;-83
2023/09/08 07:55:14;;;;;;;7.90;4.05;;;;;;;21.69;46.46;95678.22;5033262;28;20475;-85
2023/09/08 07:57:42;;;;;;;10.35;4.75;;;;;;;22.13;46.43;95739.59;5029477;28;20040;-83
2023/09/08 08:00:12;;;;;;;7.22;4.15;;;;;;;22.15;46.08;95734.66;5036803;28;20143;-86
2023/09/08 08:02:51;;;;;;;12.60;4.38;;;;;;;21.64;45.87;95616.34;5032115;28;20043;-84
2023/09/08 08:05:17;;;;;;;8.32;3.97;;;;;;;;;;5030668;28;20732;-83
2023/09/08 08:07:43;;;;;;;7.80;3.88;;;;;;;22.37;45.88;95727.28;5039511;28;20036;-84
2023/09/08 08:10:10;;;;;;;10.68;4.15;;;;;;;22.49;45.62;95744.34;5057361;28;20135;-84
2023/09/08 08:12:39;;;;;;;9.20;4.35;;;;;;;21.71;45.28;95613.91;5040773;28;20040;-84
2023/09/08 08:15:14;;;;;;;9.25;4.22;;;;;;;20.72;44.86;95455.53;5030198;28;20034;-83
2023/09/08 08:17:43;;;;;;;8.43;4.68;;;;;;;20.69;45.19;95441.91;5039532;28;20037;-85
2023/09/08 08:20:17;;;;;;;11.88;4.45;;;;;;;22.16;45.04;95639.00;5042663;28;20099;-85
2023/09/08 08:22:45;;;;;;;11.52;4.28;;;;;;;21.68;44.98;95547.06;5044834;28;20025;-85
2023/09/08 08:25:12;;;;;;;7.03;3.67;;;;;;;21.81;45.19;95586.50;5043880;28;20123;-85
2023/09/08 08:27:39;;;;;;;11.15;3.88;;;;;;;22.65;45.53;95672.28;5057921;28;20360;-86
2023/09/08 08:30:05;;;;;;;14.82;4.07;;;;;;;23.17;44.88;95736.50;5061091;28;20036;-86
2023/09/08 08:32:31;;;;;;;8.13;4.28;;;;;;;21.30;45.09;95461.78;5052028;28;20094;-84
2023/09/08 08:34:56;;;;;;;12.18;4.25;;;;;;;21.05;45.19;95390.03;5056012;28;20043;-86
2023/09/08 08:37:22;;;;;;;9.65;4.32;;;;;;;22.07;45.02;95532.97;5039074;28;20024;-86
2023/09/08 08:39:48;;;;;;;6.07;3.72;;;;;;;22.85;43.27;95643.56;5059553;28;20032;-86
2023/09/08 08:42:15;;;;;;;12.15;4.07;;;;;;;23.44;43.61;95732.28;5059978;28;20237;-87
2023/09/08 08:44:42;;;;;;;13.07;4.15;;;;;;;23.29;44.23;95703.22;5057989;28;20115;-85
2023/09/08 08:47:09;;;;;;;7.00;4.13;;;;;;;23.55;42.99;95710.97;5076166;28;20020;-85
2023/09/08 08:49:36;;;;;;;6.28;4.00;;;;;;;22.88;41.95;95613.13;5047063;28;20051;-86
2023/09/08 08:52:06;;;;;;;7.90;4.30;;;;;;;22.63;42.22;95549.38;5061961;28;20031;-86
2023/09/08 08:54:35;;;;;;;8.93;4.60;;;;;;;23.22;41.84;95667.81;5084875;28;20270;-87
2023/09/08 08:57:01;;;;;;;10.30;3.72;;;;;;;23.08;41.56;95590.53;5058163;28;20037;-86
2023/09/08 08:59:27;;;;;;;9.25;4.40;;;;;;;23.54;41.38;95685.03;5057774;28;20032;-86
2023/09/08 09:01:54;;;;;;;8.20;3.45;;;;;;;23.60;41.08;95683.66;5068771;28;20047;-86
2023/09/08 09:04:23;;;;;;;9.00;4.00;;;;;;;23.88;41.08;95708.03;5070937;28;20245;-86
2023/09/08 09:06:49;;;;;;;5.15;3.65;;;;;;;23.49;42.13;95680.66;5067040;28;20036;-86
2023/09/08 09:09:15;;;;;;;9.27;4.03;;;;;;;23.80;41.28;95718.66;5064146;28;20103;-86
2023/09/08 09:11:40;;;;;;;5.60;3.78;;;;;;;23.61;41.11;95683.31;5061818;28;20050;-86
2023/09/08 09:14:06;;;;;;;8.43;4.13;;;;;;;22.78;40.73;95542.50;5064904;28;20258;-85
2023/09/08 09:16:42;;;;;;;8.85;4.65;;;;;;;23.15;41.28;95619.72;5069925;28;20111;-86
2023/09/08 09:19:07;;;;;;;12.90;4.85;;;;;;;23.16;40.85;95579.91;5065404;28;20032;-86
2023/09/08 09:21:47;;;;;;;9.30;5.03;;;;;;;23.34;41.91;95610.97;5069117;28;20071;-86
2023/09/08 09:24:32;;;;;;;11.18;4.57;;;;;;;24.13;41.70;95726.53;5078257;28;20095;-86
2023/09/08 09:27:00;;;;;;;11.13;4.32;;;;;;;23.85;41.91;95671.59;5067275;28;20036;-87
2023/09/08 09:29:26;;;;;;;6.63;4.22;;;;;;;24.07;42.04;95708.16;5076405;28;20042;-86
2023/09/08 09:31:57;;;;;;;7.72;4.50;;;;;;;22.97;41.86;95524.50;5065833;28;20040;-86
2023/09/08 09:34:24;;;;;;;12.43;5.22;;;;;;;24.05;41.43;95686.81;5060277;28;20161;-86
2023/09/08 09:36:51;;;;;;;12.57;4.75;;;;;;;24.29;40.95;95685.16;5054788;28;20091;-86
2023/09/08 09:39:21;;;;;;;7.80;3.78;;;;;;;23.60;41.04;95581.56;5072955;28;20029;-86
2023/09/08 09:41:47;;;;;;;9.52;4.38;;;;;;;23.75;40.92;95590.84;5071854;28;20040;-86
2023/09/08 09:44:14;;;;;;;9.40;4.50;;;;;;;23.84;41.40;95611.22;5050892;28;20043;-86
2023/09/08 09:46:45;;;;;;;8.50;4.22;;;;;;;23.23;41.78;95532.19;5066877;28;20446;-86
2023/09/08 09:49:17;;;;;;;9.40;5.07;;;;;;;24.50;41.97;95713.56;5070298;28;20228;-86
2023/09/08 09:51:44;;;;;;;9.40;3.95;;;;;;;24.19;41.56;95670.16;5053378;28;20039;-87
2023/09/08 09:54:09;;;;;;;6.15;4.03;;;;;;;23.34;41.13;95530.59;5052737;28;20128;-86
2023/09/08 09:56:37;;;;;;;7.35;4.57;;;;;;;24.49;40.69;95711.22;5050712;28;20052;-87
2023/09/08 09:59:04;;;;;;;7.60;4.53;;;;;;;24.25;41.70;95663.38;5052206;28;20071;-87
2023/09/08 10:01:29;;;;;;;9.57;4.43;;;;;;;24.56;41.57;95662.59;5082184;28;20032;-87
2023/09/08 10:03:55;;;;;;;8.73;4.72;;;;;;;24.01;41.29;95549.72;5065299;28;20115;-87
2023/09/08 10:06:21;;;;;;;12.27;4.47;;;;;;;25.12;40.91;95694.91;5063112;28;20120;-87
2023/09/08 10:08:47;;;;;;;6.70;3.53;;;;;;;23.89;40.32;95495.63;5063970;28;20033;-86
2023/09/08 10:11:19;;;;;;;8.32;4.05;;;;;;;25.11;40.97;95696.84;5057717;28;20043;-86
2023/09/08 10:13:47;;;;;;;9.85;4.05;;;;;;;24.82;41.22;95692.66;5050702;28;20025;-87
2023/09/08 10:16:16;;;;;;;10.52;4.22;;;;;;;24.80;41.66;95694.94;5056694;28;20026;-87
2023/09/08 10:18:45;;;;;;;11.38;4.10;;;;;;;24.04;41.72;95579.59;5071775;28;20100;-87
2023/09/08 10:21:12;;;;;;;6.25;3.80;;;;;;;24.27;40.67;95587.13;5048789;28;20143;-86
2023/09/08 10:23:43;;;;;;;10.38;3.67;;;;;;;24.93;41.53;95682.91;5054093;28;20062;-86
2023/09/08 10:26:11;;;;;;;14.48;3.92;;;;;;;24.53;40.63;95628.84;5074125;28;20109;-86
2023/09/08 10:28:38;;;;;;;8.80;3.63;;;;;;;24.98;40.74;95685.31;5054675;28;20040;-87
2023/09/08 10:31:05;;;;;;;6.97;4.35;;;;;;;24.99;41.23;95670.63;5054447;28;20068;-87
2023/09/08 10:33:32;;;;;;;6.70;4.30;;;;;;;24.79;41.42;95649.19;5056463;28;20044;-87
2023/09/08 10:36:03;;;;;;;6.65;3.83;;;;;;;24.81;41.39;95652.31;5060639;28;20469;-86
2023/09/08 10:38:33;;;;;;;7.18;4.07;;;;;;;24.10;40.71;95536.78;5049484;28;20538;-85
2023/09/08 10:41:16;;;;;;;7.03;3.53;;;;;;;24.64;40.62;95610.13;5066729;28;20360;-85
2023/09/08 10:43:56;;;;;;;5.60;3.55;;;;;;;25.15;40.30;95675.22;5061088;28;20039;-85
2023/09/08 10:46:25;;;;;;;10.10;3.63;;;;;;;25.08;41.12;95680.50;5059370;28;20173;-86
2023/09/08 10:48:54;;;;;;;10.52;3.78;;;;;;;25.27;40.49;95692.16;5087175;28;20344;-86
2023/09/08 10:51:21;;;;;;;19.73;4.40;;;;;;;23.77;40.29;95439.63;5068439;28;20020;-86
2023/09/08 10:53:47;;;;;;;11.35;3.50;;;;;;;23.77;40.29;95439.63;5068341;28;20052;-86
2023/09/08 10:56:13;;;;;;;7.03;3.95;;;;;;;25.66;39.52;95627.84;5071549;28;20021;-86
2023/09/08 10:58:42;;;;;;;6.85;3.47;;;;;;;26.07;39.50;95679.84;5083974;28;20059;-86
2023/09/08 11:01:07;;;;;;;7.28;3.50;;;;;;;25.56;39.03;95600.44;5082058;28;20028;-86
2023/09/08 11:03:42;;;;;;;9.85;3.80;;;;;;;26.13;39.25;95675.69;5071376;28;20610;-86
2023/09/08 11:06:08;;;;;;;8.55;3.38;;;;;;;25.43;38.98;95542.00;5074175;28;20036;-86
2023/09/08 11:08:37;;;;;;;6.90;3.75;;;;;;;25.98;38.55;95642.03;5071297;28;20033;-86
2023/09/08 11:11:02;;;;;;;8.50;4.35;;;;;;;26.16;39.21;95663.31;5054835;28;20056;-85
2023/09/08 11:13:28;;;;;;;6.18;4.05;;;;;;;26.09;38.41;95594.06;5069956;28;20029;-85
2023/09/08 11:15:54;;;;;;;9.80;4.25;;;;;;;26.68;38.34;95663.47;5071463;28;20020;-84
2023/09/08 11:18:46;;;;;;;8.07;4.15;;;;;;;26.70;37.38;95646.78;5069014;28;20032;-85
2023/09/08 11:21:11;;;;;;;7.82;4.03;;;;;;;26.97;37.39;95661.19;5052553;28;20044;-84
2023/09/08 11:23:37;;;;;;;7.20;4.25;;;;;;;27.12;37.48;95657.53;5069438;28;20075;-85
2023/09/08 11:26:03;;;;;;;6.95;4.32;;;;;;;26.70;37.15;95595.09;5058995;28;20116;-85
2023/09/08 11:28:29;;;;;;;9.82;4.03;;;;;;;27.14;37.56;95663.41;5075758;28;20032;-85